WJA505 CYEG-CYYJ
Flight info
| Callsign | WJA505 |
|---|---|
| Flight time | 1h 22m |
| Altitude | 38000 |
| Route | ANDIE Q860 MERYT DCT BOOTH APASS8 |
| Aircraft | B738/M-SDE2E3FGHIRWXY/LB1 |
Departure
| Time | 2026-04-30 20:07 |
|---|---|
| Airport | Edmonton International Airport (CYEG) |
Arrival
| Time | 2026-04-30 21:29 |
|---|---|
| Airport | Victoria International Airport (CYYJ) |
| Time | Latitude | Longitude | Altitude | Speed | Heading |
|---|---|---|---|---|---|
| 2026-04-30 19:55 | 53.30542 | -113.58347 | 2354 ft | 0 kts | 40° |
| 2026-04-30 19:57 | 53.30542 | -113.58348 | 2354 ft | 2 kts | 40° |
| 2026-04-30 19:57 | 53.30523 | -113.58374 | 2354 ft | 4 kts | 40° |
| 2026-04-30 19:57 | 53.30503 | -113.58403 | 2354 ft | 4 kts | 44° |
| 2026-04-30 19:57 | 53.30486 | -113.58437 | 2354 ft | 4 kts | 66° |
| 2026-04-30 19:58 | 53.30481 | -113.58476 | 2354 ft | 4 kts | 114° |
| 2026-04-30 19:58 | 53.30486 | -113.58490 | 2354 ft | 1 kts | 134° |
| 2026-04-30 20:00 | 53.30468 | -113.58457 | 2354 ft | 12 kts | 133° |
| 2026-04-30 20:00 | 53.30384 | -113.58314 | 2354 ft | 19 kts | 138° |
| 2026-04-30 20:01 | 53.30211 | -113.58033 | 2354 ft | 18 kts | 131° |
| 2026-04-30 20:01 | 53.30130 | -113.57883 | 2353 ft | 17 kts | 132° |
| 2026-04-30 20:01 | 53.30035 | -113.57804 | 2353 ft | 16 kts | 209° |
| 2026-04-30 20:02 | 53.29893 | -113.57863 | 2353 ft | 10 kts | 137° |
| 2026-04-30 20:02 | 53.29828 | -113.57753 | 2353 ft | 19 kts | 135° |
| 2026-04-30 20:03 | 53.29554 | -113.57297 | 2351 ft | 29 kts | 134° |
| 2026-04-30 20:03 | 53.29412 | -113.57067 | 2350 ft | 28 kts | 136° |
| 2026-04-30 20:03 | 53.29279 | -113.56851 | 2349 ft | 26 kts | 136° |
| 2026-04-30 20:03 | 53.29159 | -113.56641 | 2348 ft | 24 kts | 134° |
| 2026-04-30 20:04 | 53.29045 | -113.56452 | 2347 ft | 23 kts | 136° |
| 2026-04-30 20:04 | 53.28932 | -113.56273 | 2346 ft | 22 kts | 144° |
| 2026-04-30 20:04 | 53.28800 | -113.56239 | 2346 ft | 7 kts | 173° |
| 2026-04-30 20:05 | 53.28782 | -113.56240 | 2346 ft | 0 kts | 185° |
| 2026-04-30 20:05 | 53.28737 | -113.56265 | 2346 ft | 13 kts | 217° |
| 2026-04-30 20:06 | 53.28753 | -113.56429 | 2346 ft | 20 kts | 308° |
| 2026-04-30 20:06 | 53.28981 | -113.56825 | 2345 ft | 82 kts | 315° |
| 2026-04-30 20:06 | 53.29546 | -113.57762 | 2351 ft | 144 kts | 314° |
| 2026-04-30 20:06 | 53.30347 | -113.59071 | 2721 ft | 167 kts | 313° |
| 2026-04-30 20:07 | 53.31142 | -113.60398 | 3688 ft | 161 kts | 313° |
| 2026-04-30 20:07 | 53.31947 | -113.61746 | 4440 ft | 158 kts | 315° |
| 2026-04-30 20:07 | 53.33524 | -113.64307 | 5994 ft | 163 kts | 307° |
| 2026-04-30 20:08 | 53.33863 | -113.66229 | 6240 ft | 192 kts | 265° |
| 2026-04-30 20:08 | 53.33358 | -113.68400 | 6451 ft | 216 kts | 233° |
| 2026-04-30 20:08 | 53.32364 | -113.70435 | 6637 ft | 237 kts | 230° |
| 2026-04-30 20:08 | 53.31271 | -113.72648 | 7006 ft | 251 kts | 232° |
| 2026-04-30 20:09 | 53.30125 | -113.74974 | 7324 ft | 268 kts | 231° |
| 2026-04-30 20:09 | 53.28904 | -113.77426 | 7841 ft | 278 kts | 231° |
| 2026-04-30 20:09 | 53.26472 | -113.82477 | 9515 ft | 286 kts | 233° |
| 2026-04-30 20:10 | 53.23877 | -113.87760 | 10558 ft | 313 kts | 232° |
| 2026-04-30 20:10 | 53.22441 | -113.90656 | 10869 ft | 331 kts | 232° |
| 2026-04-30 20:10 | 53.20962 | -113.93663 | 11544 ft | 337 kts | 232° |
| 2026-04-30 20:11 | 53.17965 | -113.99670 | 13078 ft | 343 kts | 233° |
| 2026-04-30 20:11 | 53.16473 | -114.02818 | 13844 ft | 348 kts | 233° |
| 2026-04-30 20:11 | 53.14939 | -114.05971 | 14562 ft | 353 kts | 233° |
| 2026-04-30 20:12 | 53.11766 | -114.12353 | 15985 ft | 362 kts | 233° |
| 2026-04-30 20:12 | 53.10150 | -114.15606 | 16727 ft | 365 kts | 233° |
| 2026-04-30 20:12 | 53.08527 | -114.18884 | 17435 ft | 370 kts | 233° |
| 2026-04-30 20:13 | 53.06880 | -114.22209 | 18114 ft | 375 kts | 233° |
| 2026-04-30 20:13 | 53.05223 | -114.25551 | 18750 ft | 380 kts | 233° |
| 2026-04-30 20:13 | 53.03536 | -114.28958 | 19386 ft | 383 kts | 233° |
| 2026-04-30 20:13 | 53.01835 | -114.32386 | 20033 ft | 385 kts | 233° |
| 2026-04-30 20:14 | 53.00120 | -114.35832 | 20654 ft | 389 kts | 233° |
| 2026-04-30 20:14 | 52.98399 | -114.39328 | 21257 ft | 392 kts | 236° |
| 2026-04-30 20:14 | 52.96783 | -114.43041 | 21767 ft | 397 kts | 238° |
| 2026-04-30 20:14 | 52.95225 | -114.46850 | 22358 ft | 400 kts | 239° |
| 2026-04-30 20:15 | 52.93682 | -114.50701 | 22978 ft | 402 kts | 239° |
| 2026-04-30 20:15 | 52.92146 | -114.54538 | 23544 ft | 405 kts | 239° |
| 2026-04-30 20:15 | 52.90573 | -114.58443 | 24034 ft | 409 kts | 238° |
| 2026-04-30 20:15 | 52.88972 | -114.62390 | 24490 ft | 413 kts | 238° |
| 2026-04-30 20:16 | 52.87355 | -114.66357 | 24941 ft | 416 kts | 238° |
| 2026-04-30 20:16 | 52.85742 | -114.70292 | 25390 ft | 419 kts | 238° |
| 2026-04-30 20:16 | 52.84095 | -114.74295 | 25831 ft | 423 kts | 238° |
| 2026-04-30 20:16 | 52.82428 | -114.78334 | 26264 ft | 426 kts | 238° |
| 2026-04-30 20:17 | 52.80748 | -114.82397 | 26682 ft | 429 kts | 238° |
| 2026-04-30 20:17 | 52.79053 | -114.86489 | 27097 ft | 433 kts | 238° |
| 2026-04-30 20:17 | 52.77347 | -114.90602 | 27508 ft | 436 kts | 238° |
| 2026-04-30 20:17 | 52.75627 | -114.94743 | 27937 ft | 438 kts | 238° |
| 2026-04-30 20:18 | 52.73899 | -114.98895 | 28366 ft | 440 kts | 238° |
| 2026-04-30 20:18 | 52.72158 | -115.03072 | 28730 ft | 444 kts | 238° |
| 2026-04-30 20:18 | 52.70398 | -115.07289 | 29091 ft | 447 kts | 238° |
| 2026-04-30 20:18 | 52.68628 | -115.11525 | 29461 ft | 450 kts | 238° |
| 2026-04-30 20:19 | 52.66847 | -115.15778 | 29832 ft | 453 kts | 238° |
| 2026-04-30 20:19 | 52.65656 | -115.18618 | 30064 ft | 455 kts | 238° |
| 2026-04-30 20:19 | 52.63261 | -115.24320 | 30492 ft | 458 kts | 237° |
| 2026-04-30 20:19 | 52.61444 | -115.28635 | 30790 ft | 460 kts | 237° |
| 2026-04-30 20:20 | 52.59605 | -115.32994 | 31081 ft | 462 kts | 238° |
| 2026-04-30 20:20 | 52.57763 | -115.37355 | 31398 ft | 464 kts | 238° |
| 2026-04-30 20:20 | 52.55940 | -115.41666 | 31795 ft | 463 kts | 238° |
| 2026-04-30 20:20 | 52.54101 | -115.46005 | 32225 ft | 462 kts | 238° |
| 2026-04-30 20:21 | 52.52262 | -115.50335 | 32611 ft | 461 kts | 238° |
| 2026-04-30 20:21 | 52.50425 | -115.54655 | 32958 ft | 461 kts | 238° |
| 2026-04-30 20:21 | 52.48586 | -115.58973 | 33319 ft | 461 kts | 238° |
| 2026-04-30 20:21 | 52.46739 | -115.63299 | 33701 ft | 460 kts | 238° |
| 2026-04-30 20:22 | 52.44904 | -115.67593 | 34061 ft | 460 kts | 238° |
| 2026-04-30 20:22 | 52.43066 | -115.71885 | 34388 ft | 460 kts | 237° |
| 2026-04-30 20:22 | 52.41253 | -115.76115 | 34721 ft | 458 kts | 237° |
| 2026-04-30 20:22 | 52.39417 | -115.80388 | 35016 ft | 459 kts | 237° |
| 2026-04-30 20:23 | 52.37569 | -115.84685 | 35243 ft | 461 kts | 237° |
| 2026-04-30 20:23 | 52.35721 | -115.88981 | 35552 ft | 460 kts | 237° |
| 2026-04-30 20:23 | 52.33876 | -115.93261 | 35930 ft | 457 kts | 237° |
| 2026-04-30 20:23 | 52.32047 | -115.97492 | 36260 ft | 456 kts | 237° |
| 2026-04-30 20:24 | 52.30231 | -116.01677 | 36548 ft | 456 kts | 237° |
| 2026-04-30 20:24 | 52.28397 | -116.05908 | 36817 ft | 456 kts | 237° |
| 2026-04-30 20:24 | 52.26564 | -116.10124 | 37144 ft | 453 kts | 237° |
| 2026-04-30 20:24 | 52.24733 | -116.14315 | 37487 ft | 451 kts | 237° |
| 2026-04-30 20:25 | 52.21086 | -116.22663 | 38070 ft | 450 kts | 237° |
| 2026-04-30 20:25 | 52.19292 | -116.26764 | 38195 ft | 448 kts | 237° |
| 2026-04-30 20:26 | 52.15674 | -116.35035 | 38234 ft | 449 kts | 237° |
| 2026-04-30 20:26 | 52.10203 | -116.47469 | 38237 ft | 451 kts | 236° |
| 2026-04-30 20:27 | 52.02901 | -116.63958 | 38259 ft | 449 kts | 236° |
| 2026-04-30 20:28 | 51.95568 | -116.80414 | 38300 ft | 450 kts | 236° |
| 2026-04-30 20:30 | 51.86366 | -117.00932 | 38284 ft | 451 kts | 236° |
| 2026-04-30 20:31 | 51.75289 | -117.25407 | 38261 ft | 448 kts | 236° |
| 2026-04-30 20:32 | 51.66083 | -117.45567 | 38257 ft | 445 kts | 235° |
| 2026-04-30 20:33 | 51.60564 | -117.57559 | 38248 ft | 443 kts | 235° |
| 2026-04-30 20:34 | 51.55081 | -117.69446 | 38263 ft | 443 kts | 235° |
| 2026-04-30 20:35 | 51.49567 | -117.81349 | 38266 ft | 442 kts | 235° |
| 2026-04-30 20:35 | 51.44070 | -117.93159 | 38258 ft | 442 kts | 235° |
| 2026-04-30 20:36 | 51.40386 | -118.01044 | 38254 ft | 442 kts | 234° |
| 2026-04-30 20:37 | 51.35469 | -118.11528 | 38250 ft | 441 kts | 235° |
| 2026-04-30 20:37 | 51.31772 | -118.19385 | 38256 ft | 442 kts | 234° |
| 2026-04-30 20:38 | 51.28063 | -118.27243 | 38232 ft | 441 kts | 235° |
| 2026-04-30 20:38 | 51.24385 | -118.35014 | 38223 ft | 441 kts | 234° |
| 2026-04-30 20:39 | 51.18810 | -118.46746 | 38233 ft | 441 kts | 234° |
| 2026-04-30 20:40 | 51.13238 | -118.58420 | 38210 ft | 443 kts | 234° |
| 2026-04-30 20:40 | 51.09500 | -118.66220 | 38215 ft | 442 kts | 234° |
| 2026-04-30 20:41 | 51.03918 | -118.77819 | 38199 ft | 442 kts | 234° |
| 2026-04-30 20:41 | 51.00175 | -118.85569 | 38205 ft | 441 kts | 234° |
| 2026-04-30 20:42 | 50.96431 | -118.93301 | 38203 ft | 441 kts | 234° |
| 2026-04-30 20:43 | 50.90837 | -119.04811 | 38204 ft | 440 kts | 234° |
| 2026-04-30 20:43 | 50.87092 | -119.12490 | 38216 ft | 439 kts | 234° |
| 2026-04-30 20:44 | 50.81477 | -119.23958 | 38196 ft | 439 kts | 234° |
| 2026-04-30 20:45 | 50.74009 | -119.39132 | 38208 ft | 437 kts | 233° |
| 2026-04-30 20:45 | 50.70292 | -119.46654 | 38210 ft | 436 kts | 233° |
| 2026-04-30 20:46 | 50.62805 | -119.61737 | 38193 ft | 436 kts | 233° |
| 2026-04-30 20:47 | 50.57210 | -119.72951 | 38203 ft | 435 kts | 233° |
| 2026-04-30 20:48 | 50.51593 | -119.84163 | 38194 ft | 435 kts | 233° |
| 2026-04-30 20:48 | 50.47840 | -119.91625 | 38192 ft | 435 kts | 233° |
| 2026-04-30 20:49 | 50.44069 | -119.99104 | 38188 ft | 435 kts | 233° |
| 2026-04-30 20:50 | 50.38446 | -120.10217 | 38174 ft | 434 kts | 233° |
| 2026-04-30 20:50 | 50.34708 | -120.17584 | 38182 ft | 433 kts | 233° |
| 2026-04-30 20:51 | 50.30949 | -120.24961 | 38179 ft | 432 kts | 233° |
| 2026-04-30 20:51 | 50.25335 | -120.35941 | 38180 ft | 431 kts | 232° |
| 2026-04-30 20:52 | 50.21592 | -120.43241 | 38171 ft | 429 kts | 232° |
| 2026-04-30 20:53 | 50.16025 | -120.54060 | 38173 ft | 425 kts | 232° |
| 2026-04-30 20:53 | 50.12327 | -120.61223 | 38169 ft | 424 kts | 232° |
| 2026-04-30 20:54 | 50.06773 | -120.71950 | 38168 ft | 421 kts | 232° |
| 2026-04-30 20:55 | 50.01260 | -120.82555 | 38155 ft | 420 kts | 232° |
| 2026-04-30 20:55 | 49.99413 | -120.86104 | 37835 ft | 426 kts | 232° |
| 2026-04-30 20:55 | 49.97559 | -120.89661 | 37518 ft | 421 kts | 232° |
| 2026-04-30 20:56 | 49.93926 | -120.96698 | 36721 ft | 412 kts | 236° |
| 2026-04-30 20:56 | 49.92423 | -121.00399 | 36325 ft | 408 kts | 240° |
| 2026-04-30 20:56 | 49.89597 | -121.07937 | 35586 ft | 401 kts | 241° |
| 2026-04-30 20:57 | 49.88202 | -121.11672 | 35225 ft | 397 kts | 240° |
| 2026-04-30 20:57 | 49.86811 | -121.15372 | 34850 ft | 395 kts | 240° |
| 2026-04-30 20:57 | 49.85443 | -121.18989 | 34503 ft | 392 kts | 240° |
| 2026-04-30 20:58 | 49.82686 | -121.26229 | 33727 ft | 387 kts | 240° |
| 2026-04-30 20:58 | 49.81311 | -121.29814 | 33351 ft | 384 kts | 240° |
| 2026-04-30 20:58 | 49.79951 | -121.33353 | 33000 ft | 381 kts | 240° |
| 2026-04-30 20:58 | 49.78602 | -121.36863 | 32634 ft | 378 kts | 239° |
| 2026-04-30 20:59 | 49.75940 | -121.43757 | 31958 ft | 372 kts | 238° |
| 2026-04-30 20:59 | 49.74617 | -121.47177 | 31609 ft | 370 kts | 239° |
| 2026-04-30 21:00 | 49.71992 | -121.53956 | 30939 ft | 365 kts | 238° |
| 2026-04-30 21:00 | 49.69399 | -121.60636 | 30285 ft | 361 kts | 238° |
| 2026-04-30 21:01 | 49.66832 | -121.67246 | 29556 ft | 355 kts | 238° |
| 2026-04-30 21:01 | 49.65566 | -121.70504 | 29182 ft | 352 kts | 238° |
| 2026-04-30 21:01 | 49.63073 | -121.76891 | 28496 ft | 346 kts | 238° |
| 2026-04-30 21:02 | 49.61837 | -121.80049 | 28183 ft | 343 kts | 237° |
| 2026-04-30 21:02 | 49.60605 | -121.83196 | 27828 ft | 341 kts | 237° |
| 2026-04-30 21:02 | 49.59396 | -121.86283 | 27502 ft | 339 kts | 237° |
| 2026-04-30 21:02 | 49.58166 | -121.89427 | 27163 ft | 337 kts | 237° |
| 2026-04-30 21:03 | 49.56973 | -121.92466 | 26840 ft | 334 kts | 237° |
| 2026-04-30 21:03 | 49.55771 | -121.95520 | 26522 ft | 334 kts | 237° |
| 2026-04-30 21:03 | 49.54562 | -121.98591 | 26201 ft | 333 kts | 237° |
| 2026-04-30 21:03 | 49.53356 | -122.01648 | 25878 ft | 337 kts | 236° |
| 2026-04-30 21:04 | 49.52118 | -122.04778 | 25552 ft | 346 kts | 236° |
| 2026-04-30 21:04 | 49.50856 | -122.07957 | 25225 ft | 348 kts | 236° |
| 2026-04-30 21:04 | 49.48358 | -122.14232 | 24582 ft | 344 kts | 236° |
| 2026-04-30 21:05 | 49.47098 | -122.17395 | 24209 ft | 342 kts | 236° |
| 2026-04-30 21:05 | 49.45855 | -122.20511 | 23885 ft | 341 kts | 236° |
| 2026-04-30 21:05 | 49.44636 | -122.23566 | 23525 ft | 339 kts | 235° |
| 2026-04-30 21:05 | 49.43401 | -122.26659 | 23145 ft | 337 kts | 235° |
| 2026-04-30 21:06 | 49.42180 | -122.29708 | 22784 ft | 334 kts | 235° |
| 2026-04-30 21:06 | 49.40967 | -122.32741 | 22469 ft | 330 kts | 235° |
| 2026-04-30 21:06 | 49.39765 | -122.35738 | 22135 ft | 328 kts | 235° |
| 2026-04-30 21:06 | 49.38578 | -122.38700 | 21842 ft | 324 kts | 234° |
| 2026-04-30 21:07 | 49.37396 | -122.41634 | 21514 ft | 322 kts | 234° |
| 2026-04-30 21:07 | 49.36242 | -122.44510 | 21183 ft | 319 kts | 234° |
| 2026-04-30 21:07 | 49.35081 | -122.47392 | 20896 ft | 316 kts | 234° |
| 2026-04-30 21:07 | 49.33934 | -122.50257 | 20589 ft | 314 kts | 234° |
| 2026-04-30 21:08 | 49.32792 | -122.53116 | 20261 ft | 313 kts | 234° |
| 2026-04-30 21:08 | 49.31657 | -122.55963 | 19950 ft | 311 kts | 234° |
| 2026-04-30 21:08 | 49.30530 | -122.58781 | 19635 ft | 309 kts | 234° |
| 2026-04-30 21:08 | 49.29419 | -122.61541 | 19319 ft | 308 kts | 234° |
| 2026-04-30 21:09 | 49.28290 | -122.64341 | 19012 ft | 307 kts | 234° |
| 2026-04-30 21:09 | 49.27175 | -122.67113 | 18718 ft | 305 kts | 234° |
| 2026-04-30 21:09 | 49.26070 | -122.69878 | 18405 ft | 305 kts | 234° |
| 2026-04-30 21:09 | 49.24952 | -122.72650 | 18053 ft | 304 kts | 234° |
| 2026-04-30 21:10 | 49.23837 | -122.75397 | 17714 ft | 302 kts | 234° |
| 2026-04-30 21:10 | 49.22731 | -122.78119 | 17419 ft | 300 kts | 234° |
| 2026-04-30 21:10 | 49.21635 | -122.80815 | 16992 ft | 302 kts | 234° |
| 2026-04-30 21:10 | 49.20529 | -122.83534 | 16657 ft | 301 kts | 234° |
| 2026-04-30 21:11 | 49.19424 | -122.86254 | 16330 ft | 300 kts | 235° |
| 2026-04-30 21:11 | 49.18324 | -122.88958 | 16001 ft | 299 kts | 235° |
| 2026-04-30 21:11 | 49.17226 | -122.91658 | 15681 ft | 297 kts | 235° |
| 2026-04-30 21:11 | 49.16137 | -122.94332 | 15360 ft | 296 kts | 235° |
| 2026-04-30 21:12 | 49.15050 | -122.97001 | 15052 ft | 295 kts | 235° |
| 2026-04-30 21:12 | 49.13966 | -122.99660 | 14744 ft | 294 kts | 235° |
| 2026-04-30 21:12 | 49.12892 | -123.02294 | 14441 ft | 293 kts | 235° |
| 2026-04-30 21:12 | 49.11810 | -123.04944 | 14136 ft | 292 kts | 235° |
| 2026-04-30 21:13 | 49.10747 | -123.07536 | 13810 ft | 291 kts | 235° |
| 2026-04-30 21:13 | 49.09660 | -123.10181 | 13474 ft | 290 kts | 235° |
| 2026-04-30 21:13 | 49.08519 | -123.12652 | 13148 ft | 287 kts | 222° |
| 2026-04-30 21:13 | 49.06851 | -123.14244 | 12816 ft | 283 kts | 198° |
| 2026-04-30 21:14 | 49.04912 | -123.14763 | 12422 ft | 284 kts | 180° |
| 2026-04-30 21:14 | 49.02933 | -123.14675 | 12043 ft | 285 kts | 176° |
| 2026-04-30 21:14 | 49.00956 | -123.14501 | 11646 ft | 287 kts | 176° |
| 2026-04-30 21:14 | 48.98954 | -123.14315 | 11258 ft | 288 kts | 176° |
| 2026-04-30 21:15 | 48.96947 | -123.14137 | 10861 ft | 289 kts | 176° |
| 2026-04-30 21:15 | 48.94933 | -123.13968 | 10465 ft | 290 kts | 176° |
| 2026-04-30 21:15 | 48.92902 | -123.13806 | 10065 ft | 292 kts | 176° |
| 2026-04-30 21:15 | 48.90917 | -123.13654 | 9915 ft | 283 kts | 176° |
| 2026-04-30 21:16 | 48.88991 | -123.13509 | 9894 ft | 271 kts | 176° |
| 2026-04-30 21:16 | 48.87130 | -123.13370 | 9672 ft | 266 kts | 177° |
| 2026-04-30 21:16 | 48.85278 | -123.13233 | 9364 ft | 266 kts | 176° |
| 2026-04-30 21:16 | 48.83427 | -123.13098 | 9055 ft | 265 kts | 177° |
| 2026-04-30 21:17 | 48.81600 | -123.12965 | 8774 ft | 263 kts | 177° |
| 2026-04-30 21:17 | 48.79775 | -123.12833 | 8473 ft | 262 kts | 177° |
| 2026-04-30 21:17 | 48.77958 | -123.12701 | 8179 ft | 261 kts | 176° |
| 2026-04-30 21:17 | 48.76166 | -123.12584 | 7962 ft | 251 kts | 169° |
| 2026-04-30 21:18 | 48.74417 | -123.12176 | 6954 ft | 270 kts | 175° |
| 2026-04-30 21:18 | 48.72540 | -123.12102 | 6625 ft | 263 kts | 178° |
| 2026-04-30 21:18 | 48.70758 | -123.12061 | 6494 ft | 247 kts | 178° |
| 2026-04-30 21:18 | 48.69084 | -123.11986 | 6386 ft | 233 kts | 178° |
| 2026-04-30 21:19 | 48.67520 | -123.12223 | 6212 ft | 223 kts | 194° |
| 2026-04-30 21:19 | 48.66059 | -123.12871 | 5920 ft | 219 kts | 194° |
| 2026-04-30 21:19 | 48.64586 | -123.13479 | 5542 ft | 219 kts | 193° |
| 2026-04-30 21:19 | 48.63123 | -123.14074 | 5200 ft | 217 kts | 193° |
| 2026-04-30 21:20 | 48.61696 | -123.14656 | 4919 ft | 213 kts | 193° |
| 2026-04-30 21:20 | 48.60271 | -123.15240 | 4599 ft | 211 kts | 193° |
| 2026-04-30 21:20 | 48.58856 | -123.15813 | 4253 ft | 210 kts | 193° |
| 2026-04-30 21:20 | 48.57447 | -123.16377 | 3904 ft | 210 kts | 193° |
| 2026-04-30 21:21 | 48.56036 | -123.16937 | 3597 ft | 208 kts | 193° |
| 2026-04-30 21:21 | 48.54634 | -123.17369 | 3403 ft | 204 kts | 178° |
| 2026-04-30 21:21 | 48.52522 | -123.14988 | 2826 ft | 207 kts | 104° |
| 2026-04-30 21:22 | 48.52597 | -123.12880 | 2667 ft | 199 kts | 66° |
| 2026-04-30 21:22 | 48.55921 | -123.09806 | 2465 ft | 193 kts | 20° |
| 2026-04-30 21:23 | 48.56778 | -123.09369 | 2459 ft | 192 kts | 11° |
| 2026-04-30 21:23 | 48.58032 | -123.09697 | 2463 ft | 189 kts | 322° |
| 2026-04-30 21:23 | 48.59363 | -123.13492 | 2448 ft | 164 kts | 288° |
| 2026-04-30 21:24 | 48.59609 | -123.14592 | 2485 ft | 162 kts | 284° |
| 2026-04-30 21:24 | 48.59919 | -123.16183 | 2502 ft | 158 kts | 283° |
| 2026-04-30 21:24 | 48.60219 | -123.17776 | 2464 ft | 155 kts | 283° |
| 2026-04-30 21:24 | 48.60515 | -123.19359 | 2489 ft | 158 kts | 284° |
| 2026-04-30 21:25 | 48.61118 | -123.22554 | 2459 ft | 156 kts | 284° |
| 2026-04-30 21:25 | 48.61414 | -123.24120 | 2363 ft | 159 kts | 284° |
| 2026-04-30 21:25 | 48.61718 | -123.25728 | 2151 ft | 158 kts | 284° |
| 2026-04-30 21:26 | 48.62310 | -123.28861 | 1736 ft | 151 kts | 285° |
| 2026-04-30 21:26 | 48.62593 | -123.30361 | 1542 ft | 150 kts | 285° |
| 2026-04-30 21:27 | 48.63164 | -123.33377 | 1133 ft | 148 kts | 285° |
| 2026-04-30 21:27 | 48.63447 | -123.34863 | 943 ft | 147 kts | 285° |
| 2026-04-30 21:27 | 48.63721 | -123.36333 | 770 ft | 147 kts | 288° |
| 2026-04-30 21:28 | 48.64306 | -123.39405 | 379 ft | 156 kts | 286° |
| 2026-04-30 21:28 | 48.64607 | -123.40989 | 122 ft | 154 kts | 287° |
| 2026-04-30 21:28 | 48.65069 | -123.43350 | 52 ft | 66 kts | 286° |
| 2026-04-30 21:29 | 48.65156 | -123.43901 | 49 ft | 19 kts | 237° |
| 2026-04-30 21:29 | 48.64982 | -123.43504 | 50 ft | 17 kts | 103° |
| 2026-04-30 21:30 | 48.64872 | -123.43228 | 51 ft | 15 kts | 149° |